Time;durP1;ratioP1;P1;durP2;ratioP2;P2;SDS_P1;SDS_P2;PMS_P1;PMS_P2;Temp;Humidity;BMP_temperature;BMP_pressure;BME280_temperature;BME280_humidity;BME280_pressure;Samples;Min_cycle;Max_cycle;Signal;HPM_P1;HPM_P2
2023/07/11 00:00:49;;;;;;;1.42;0.57;;;19.80;99.90;;;;;;5040021;28;20544;-77
2023/07/11 00:03:16;;;;;;;0.47;0.30;;;19.80;99.90;;;;;;5020995;28;20098;-76
2023/07/11 00:05:43;;;;;;;1.08;0.38;;;19.80;99.90;;;;;;5021507;28;20420;-76
2023/07/11 00:08:10;;;;;;;0.88;0.38;;;19.70;99.90;;;;;;5039263;28;20076;-75
2023/07/11 00:10:37;;;;;;;1.00;0.47;;;19.70;99.90;;;;;;5005910;28;20136;-77
2023/07/11 00:13:03;;;;;;;0.77;0.47;;;19.70;99.90;;;;;;5020964;28;20523;-77
2023/07/11 00:15:30;;;;;;;1.60;0.70;;;19.70;99.90;;;;;;5020809;28;20045;-77
2023/07/11 00:17:57;;;;;;;0.95;0.70;;;19.70;99.90;;;;;;5021999;28;20225;-77
2023/07/11 00:20:24;;;;;;;1.92;0.70;;;19.60;99.90;;;;;;5021311;28;20053;-77
2023/07/11 00:22:50;;;;;;;1.20;0.60;;;19.50;99.90;;;;;;5021353;28;20060;-77
2023/07/11 00:25:17;;;;;;;0.98;0.38;;;19.50;99.90;;;;;;5021926;28;20064;-76
2023/07/11 00:27:44;;;;;;;0.88;0.40;;;19.50;99.90;;;;;;5004189;28;20593;-77
2023/07/11 00:30:11;;;;;;;1.05;0.60;;;19.40;99.90;;;;;;5021334;28;20049;-76
2023/07/11 00:32:38;;;;;;;1.30;0.52;;;19.40;99.90;;;;;;5032758;28;20059;-76
2023/07/11 00:35:05;;;;;;;1.05;0.40;;;19.40;99.90;;;;;;5039091;28;20491;-77
2023/07/11 00:37:32;;;;;;;1.00;0.60;;;19.40;99.90;;;;;;5012404;28;20053;-76
2023/07/11 00:39:58;;;;;;;1.52;0.70;;;19.40;99.90;;;;;;5008727;28;20107;-77
2023/07/11 00:42:25;;;;;;;1.35;0.80;;;19.40;99.90;;;;;;5043611;28;20049;-77
2023/07/11 00:44:56;;;;;;;1.55;0.60;;;19.40;99.90;;;;;;5025166;28;20574;-77
2023/07/11 00:47:25;;;;;;;1.25;0.63;;;19.40;99.90;;;;;;5041738;28;20052;-77
2023/07/11 00:50:07;;;;;;;1.92;0.80;;;19.40;99.90;;;;;;5034549;28;20064;-77
2023/07/11 00:52:34;;;;;;;1.58;0.50;;;19.40;99.90;;;;;;5024489;28;20052;-77
2023/07/11 00:55:03;;;;;;;1.17;0.68;;;19.40;99.90;;;;;;5033151;28;20091;-77
2023/07/11 00:57:31;;;;;;;0.50;0.40;;;19.40;99.90;;;;;;5031245;28;20041;-76
2023/07/11 00:59:57;;;;;;;2.03;0.90;;;19.50;99.90;;;;;;5009036;28;20098;-76
2023/07/11 01:02:25;;;;;;;0.88;0.57;;;19.50;99.90;;;;;;5052920;28;20053;-76
2023/07/11 01:04:52;;;;;;;1.30;0.63;;;19.50;99.90;;;;;;5018325;28;20051;-77
2023/07/11 01:07:26;;;;;;;2.03;0.80;;;19.50;99.90;;;;;;5019648;28;20052;-77
2023/07/11 01:09:53;;;;;;;1.55;0.65;;;19.50;99.90;;;;;;5032059;28;20162;-77
2023/07/11 01:12:20;;;;;;;1.67;0.93;;;19.50;99.90;;;;;;5003281;28;20169;-77
2023/07/11 01:14:47;;;;;;;1.17;0.57;;;19.60;99.90;;;;;;5033606;28;20083;-77
2023/07/11 01:17:41;;;;;;;1.52;0.70;;;19.60;99.90;;;;;;5022310;28;20492;-79
2023/07/11 01:20:09;;;;;;;1.02;0.50;;;19.60;99.90;;;;;;5020472;28;20136;-76
2023/07/11 01:22:37;;;;;;;1.33;0.70;;;19.50;99.90;;;;;;5022848;28;20176;-76
2023/07/11 01:25:06;;;;;;;1.00;0.55;;;19.50;99.90;;;;;;5030109;28;20072;-77
2023/07/11 01:27:32;;;;;;;1.55;0.60;;;19.50;99.90;;;;;;5042781;28;20532;-77
2023/07/11 01:30:03;;;;;;;0.82;0.50;;;19.60;99.90;;;;;;5019601;28;20096;-78
2023/07/11 01:32:30;;;;;;;1.90;0.70;;;19.60;99.90;;;;;;5020722;28;20103;-77
2023/07/11 01:34:57;;;;;;;1.02;0.43;;;19.60;99.90;;;;;;5025591;28;20567;-77
2023/07/11 01:37:24;;;;;;;1.33;0.60;;;19.50;99.90;;;;;;5025447;28;20501;-77
2023/07/11 01:39:51;;;;;;;1.80;1.00;;;19.60;99.90;;;;;;5032970;28;20050;-77
2023/07/11 01:42:17;;;;;;;1.75;0.60;;;19.60;99.90;;;;;;5024626;28;20057;-77
2023/07/11 01:44:44;;;;;;;1.63;0.60;;;19.60;99.90;;;;;;5035532;28;20114;-77
2023/07/11 01:47:11;;;;;;;2.03;0.70;;;19.60;99.90;;;;;;5052731;28;20041;-78
2023/07/11 01:49:38;;;;;;;1.20;0.60;;;19.70;99.90;;;;;;5053126;28;20554;-77
2023/07/11 01:52:23;;;;;;;1.00;0.68;;;19.60;99.90;;;;;;5027606;28;20096;-77
2023/07/11 01:54:50;;;;;;;0.57;0.40;;;19.60;99.90;;;;;;5047726;28;20061;-77
2023/07/11 01:57:17;;;;;;;1.30;0.68;;;19.70;99.90;;;;;;5026504;28;20042;-78
2023/07/11 01:59:44;;;;;;;0.98;0.60;;;19.70;99.90;;;;;;5037635;28;20049;-78
2023/07/11 02:02:11;;;;;;;0.90;0.60;;;19.80;99.90;;;;;;5026936;28;20079;-76
2023/07/11 02:04:37;;;;;;;1.20;0.63;;;19.80;99.90;;;;;;5034569;28;20133;-77
2023/07/11 02:07:05;;;;;;;1.17;0.50;;;19.80;99.90;;;;;;5049847;28;20555;-77
2023/07/11 02:09:32;;;;;;;1.75;0.85;;;19.80;99.90;;;;;;5015057;28;20128;-77
2023/07/11 02:11:58;;;;;;;2.10;0.70;;;19.90;99.90;;;;;;4972623;28;20053;-77
2023/07/11 02:14:25;;;;;;;1.67;0.70;;;19.90;99.90;;;;;;4990338;28;20050;-76
2023/07/11 02:16:52;;;;;;;0.50;0.43;;;19.90;99.90;;;;;;5007588;28;20106;-77
2023/07/11 02:19:20;;;;;;;1.20;0.70;;;19.90;99.90;;;;;;4973850;28;20057;-77
2023/07/11 02:21:47;;;;;;;0.70;0.40;;;20.00;99.90;;;;;;4990850;28;20050;-77
2023/07/11 02:24:15;;;;;;;0.88;0.57;;;20.00;99.90;;;;;;5016877;28;20053;-77
2023/07/11 02:26:42;;;;;;;1.17;0.80;;;20.10;99.90;;;;;;5006480;28;20405;-76
2023/07/11 02:29:08;;;;;;;0.88;0.60;;;20.10;99.90;;;;;;5013121;28;20057;-78
2023/07/11 02:31:35;;;;;;;1.05;0.60;;;20.10;99.90;;;;;;5005646;28;20552;-77
2023/07/11 02:34:02;;;;;;;1.48;0.73;;;20.10;99.90;;;;;;5033509;28;20128;-77
2023/07/11 02:36:29;;;;;;;0.65;0.40;;;20.10;99.90;;;;;;5017137;28;20046;-77
2023/07/11 02:38:56;;;;;;;1.40;0.50;;;20.10;99.90;;;;;;5033359;28;20073;-77
2023/07/11 02:41:24;;;;;;;0.90;0.50;;;20.20;99.90;;;;;;5005603;28;20111;-77
2023/07/11 02:43:51;;;;;;;1.83;0.75;;;20.20;99.90;;;;;;5007286;28;20449;-77
2023/07/11 02:46:17;;;;;;;1.98;0.98;;;20.10;99.90;;;;;;5011383;28;20332;-76
2023/07/11 02:48:45;;;;;;;1.70;1.02;;;20.10;99.90;;;;;;5007348;28;20058;-77
2023/07/11 02:51:11;;;;;;;1.25;0.77;;;20.10;99.90;;;;;;5006799;28;20104;-76
2023/07/11 02:53:38;;;;;;;2.47;0.90;;;20.10;99.90;;;;;;5005398;28;20054;-77
2023/07/11 02:56:05;;;;;;;0.85;0.60;;;20.10;99.90;;;;;;5005997;28;20686;-77
2023/07/11 02:58:32;;;;;;;2.20;0.65;;;20.10;99.90;;;;;;5006040;28;20137;-77
2023/07/11 03:01:00;;;;;;;1.33;0.57;;;20.00;99.90;;;;;;5005771;28;20050;-77
2023/07/11 03:03:27;;;;;;;1.42;0.70;;;20.00;99.90;;;;;;5030820;28;20046;-77
2023/07/11 03:05:54;;;;;;;0.90;0.60;;;20.10;99.90;;;;;;5025141;28;20054;-77
2023/07/11 03:08:21;;;;;;;1.38;0.70;;;20.00;99.90;;;;;;5013759;28;20038;-77
2023/07/11 03:10:49;;;;;;;1.02;0.52;;;20.10;99.90;;;;;;5046436;28;20048;-77
2023/07/11 03:13:18;;;;;;;1.00;0.60;;;20.00;99.90;;;;;;5045447;28;20076;-77
2023/07/11 03:15:45;;;;;;;2.38;0.75;;;20.00;99.90;;;;;;5028123;28;20484;-77
2023/07/11 03:18:12;;;;;;;0.93;0.65;;;20.00;99.90;;;;;;5028324;28;20461;-76
2023/07/11 03:20:39;;;;;;;1.10;0.60;;;20.00;99.90;;;;;;5055816;28;21355;-77
2023/07/11 03:23:07;;;;;;;1.20;0.47;;;20.00;99.90;;;;;;5005714;28;20048;-77
2023/07/11 03:25:33;;;;;;;0.95;0.60;;;20.10;99.90;;;;;;5052068;28;20095;-77
2023/07/11 03:28:00;;;;;;;1.38;0.80;;;20.10;99.90;;;;;;5004939;28;20049;-77
2023/07/11 03:30:27;;;;;;;1.25;0.60;;;20.00;99.90;;;;;;5057093;28;20685;-77
2023/07/11 03:32:54;;;;;;;0.98;0.52;;;20.00;99.90;;;;;;5015250;28;20045;-77
2023/07/11 03:35:21;;;;;;;2.38;0.73;;;20.00;99.90;;;;;;5028143;28;20048;-77
2023/07/11 03:37:48;;;;;;;0.90;0.60;;;20.00;99.90;;;;;;5033484;28;20045;-76
2023/07/11 03:40:15;;;;;;;1.50;0.82;;;20.00;99.90;;;;;;5027052;28;20055;-76
2023/07/11 03:42:42;;;;;;;1.02;0.40;;;20.00;99.90;;;;;;5049954;28;20045;-77
2023/07/11 03:45:09;;;;;;;2.08;0.63;;;20.00;99.90;;;;;;5027344;28;20056;-77
2023/07/11 03:47:36;;;;;;;0.95;0.65;;;19.90;99.90;;;;;;5027970;28;20099;-77
2023/07/11 03:50:03;;;;;;;1.33;0.68;;;19.80;99.90;;;;;;5045708;28;20483;-77
2023/07/11 03:52:30;;;;;;;0.70;0.40;;;19.80;99.90;;;;;;5027497;28;20049;-77
2023/07/11 03:54:56;;;;;;;1.15;0.80;;;19.80;99.90;;;;;;5054834;28;20055;-77
2023/07/11 03:57:24;;;;;;;1.90;0.85;;;19.80;99.90;;;;;;5008471;28;20040;-77
2023/07/11 03:59:51;;;;;;;1.73;0.85;;;19.80;99.90;;;;;;5027274;28;20053;-78
2023/07/11 04:02:18;;;;;;;1.75;0.68;;;19.70;99.90;;;;;;5032414;28;20686;-77
2023/07/11 04:04:45;;;;;;;1.00;0.73;;;19.70;99.90;;;;;;5038091;28;20049;-77
2023/07/11 04:07:12;;;;;;;1.33;0.60;;;19.70;99.90;;;;;;5026602;28;20044;-77
2023/07/11 04:09:40;;;;;;;1.13;0.43;;;19.70;99.90;;;;;;5027289;28;20065;-77
2023/07/11 04:12:07;;;;;;;1.45;0.65;;;19.70;99.90;;;;;;5000186;28;20046;-77
2023/07/11 04:14:34;;;;;;;1.42;0.80;;;19.60;99.90;;;;;;5026760;28;20077;-77
2023/07/11 04:17:01;;;;;;;1.55;0.80;;;19.60;99.90;;;;;;5055659;28;20045;-78
2023/07/11 04:19:28;;;;;;;1.45;0.70;;;19.60;99.90;;;;;;5037608;28;20049;-77
2023/07/11 04:21:54;;;;;;;2.38;0.80;;;19.50;99.90;;;;;;5049405;28;20496;-77
2023/07/11 04:24:21;;;;;;;1.50;0.60;;;19.50;99.90;;;;;;5049311;28;20080;-77
2023/07/11 04:26:48;;;;;;;1.70;0.50;;;19.40;99.90;;;;;;5054375;28;20038;-77
2023/07/11 04:29:15;;;;;;;1.20;0.30;;;19.40;99.90;;;;;;5026518;28;20053;-77
2023/07/11 04:31:41;;;;;;;1.75;0.80;;;19.40;99.90;;;;;;5020691;28;20303;-78
2023/07/11 04:34:08;;;;;;;1.52;0.90;;;19.30;99.90;;;;;;5050873;28;20140;-77
2023/07/11 04:36:35;;;;;;;0.47;0.30;;;19.30;99.90;;;;;;5026417;28;20083;-77
2023/07/11 04:39:03;;;;;;;2.10;0.88;;;19.30;99.90;;;;;;5036497;28;20111;-77
2023/07/11 04:41:30;;;;;;;0.80;0.60;;;19.30;99.90;;;;;;5008824;28;20378;-77
2023/07/11 04:43:57;;;;;;;0.50;0.50;;;19.30;99.90;;;;;;5006490;28;20500;-77
2023/07/11 04:46:25;;;;;;;1.73;0.77;;;19.30;99.90;;;;;;5021297;28;20107;-78
2023/07/11 04:48:52;;;;;;;1.63;0.50;;;19.20;99.90;;;;;;5031613;28;20045;-78
2023/07/11 04:51:19;;;;;;;1.38;0.70;;;19.20;99.90;;;;;;5024476;28;20047;-77
2023/07/11 04:53:46;;;;;;;0.82;0.47;;;19.20;99.90;;;;;;5024856;28;20061;-77
2023/07/11 04:56:13;;;;;;;1.20;0.50;;;19.20;99.90;;;;;;5047779;28;20155;-76
2023/07/11 04:58:39;;;;;;;0.40;0.40;;;19.20;99.90;;;;;;5042334;28;20037;-77
2023/07/11 05:01:11;;;;;;;1.25;0.50;;;19.20;99.90;;;;;;5024975;28;20071;-77
2023/07/11 05:03:38;;;;;;;0.82;0.35;;;19.20;99.90;;;;;;5019765;28;20599;-77
2023/07/11 05:06:05;;;;;;;0.40;0.40;;;19.20;99.90;;;;;;5026805;28;20136;-77
2023/07/11 05:08:33;;;;;;;1.77;0.85;;;19.20;99.90;;;;;;4999351;28;20508;-77
2023/07/11 05:11:11;;;;;;;1.33;0.50;;;19.20;99.90;;;;;;5007204;28;20451;-77
2023/07/11 05:13:37;;;;;;;0.55;0.40;;;19.20;99.90;;;;;;5015009;28;20041;-77
2023/07/11 05:16:06;;;;;;;1.90;0.70;;;19.10;99.90;;;;;;5021994;28;20053;-77
2023/07/11 05:18:40;;;;;;;1.40;0.40;;;19.00;99.90;;;;;;5012691;28;20068;-77
2023/07/11 05:21:11;;;;;;;0.38;0.30;;;18.90;99.90;;;;;;5022570;28;20056;-78
2023/07/11 05:23:38;;;;;;;0.63;0.40;;;18.90;99.90;;;;;;5021142;28;22210;-76
2023/07/11 05:26:05;;;;;;;1.35;0.43;;;18.90;99.90;;;;;;5024789;28;20065;-77
2023/07/11 05:28:33;;;;;;;0.22;0.20;;;18.90;99.90;;;;;;5040767;28;20099;-77
2023/07/11 05:31:00;;;;;;;0.73;0.40;;;18.90;99.90;;;;;;5026979;28;20053;-77
2023/07/11 05:33:28;;;;;;;2.75;0.50;;;19.00;99.90;;;;;;5026531;28;20052;-76
2023/07/11 05:38:45;;;;;;;0.80;0.30;;;19.00;99.90;;;;;;5029986;28;20076;-77
2023/07/11 05:41:15;;;;;;;0.63;0.50;;;18.90;99.90;;;;;;5015282;28;20139;-77
2023/07/11 05:43:42;;;;;;;0.40;0.30;;;18.80;99.90;;;;;;5033346;28;20042;-77
2023/07/11 05:46:09;;;;;;;0.20;0.20;;;18.80;99.90;;;;;;5050557;28;20503;-76
2023/07/11 05:48:36;;;;;;;0.63;0.28;;;18.70;99.90;;;;;;5041822;28;20040;-77
2023/07/11 05:51:11;;;;;;;0.50;0.20;;;18.60;99.90;;;;;;5009342;28;20058;-77
2023/07/11 05:53:38;;;;;;;0.45;0.30;;;18.60;99.90;;;;;;5051040;28;20164;-77
2023/07/11 05:56:05;;;;;;;0.35;0.25;;;18.60;99.90;;;;;;5027675;28;20056;-77
2023/07/11 05:58:34;;;;;;;0.55;0.40;;;18.60;99.90;;;;;;5017653;28;20143;-76
2023/07/11 06:01:03;;;;;;;0.25;0.20;;;18.70;99.90;;;;;;5016690;28;20146;-77
2023/07/11 06:03:30;;;;;;;0.90;0.30;;;18.70;99.90;;;;;;5014727;28;20128;-77
2023/07/11 06:06:02;;;;;;;0.65;0.40;;;18.60;99.90;;;;;;5003042;28;20048;-78
2023/07/11 06:08:30;;;;;;;0.40;0.30;;;18.60;99.90;;;;;;5032957;28;20132;-77
2023/07/11 06:10:58;;;;;;;0.50;0.30;;;18.60;99.90;;;;;;5025260;28;20564;-77
2023/07/11 06:13:25;;;;;;;1.30;0.68;;;18.70;99.90;;;;;;5037836;28;20065;-77
2023/07/11 06:16:02;;;;;;;0.50;0.40;;;18.70;99.90;;;;;;5008250;28;20057;-77
2023/07/11 06:18:32;;;;;;;0.50;0.40;;;18.70;99.90;;;;;;5025315;28;20044;-77
2023/07/11 06:20:59;;;;;;;0.55;0.40;;;18.70;99.90;;;;;;5008455;28;20518;-78
2023/07/11 06:23:26;;;;;;;1.05;0.43;;;18.60;99.90;;;;;;5024090;28;20654;-78
2023/07/11 06:25:53;;;;;;;1.15;0.32;;;18.50;99.90;;;;;;5020666;28;20060;-77
2023/07/11 06:28:20;;;;;;;1.35;0.50;;;18.50;99.90;;;;;;5040959;28;20056;-77
2023/07/11 06:30:47;;;;;;;0.73;0.40;;;18.50;99.90;;;;;;5017469;28;20053;-77
2023/07/11 06:33:18;;;;;;;0.35;0.32;;;18.50;99.90;;;;;;5007692;28;20053;-78
2023/07/11 06:35:48;;;;;;;0.40;0.40;;;18.60;99.90;;;;;;5024150;28;20082;-79
2023/07/11 06:38:17;;;;;;;1.27;0.40;;;18.70;99.90;;;;;;5032105;28;20121;-77
2023/07/11 06:40:52;;;;;;;1.20;0.60;;;18.80;99.90;;;;;;5002008;28;20079;-77
2023/07/11 06:43:19;;;;;;;0.85;0.57;;;19.00;99.90;;;;;;5018098;28;20052;-77
2023/07/11 06:45:46;;;;;;;1.17;0.65;;;19.00;99.90;;;;;;5000763;28;20106;-77
2023/07/11 06:48:17;;;;;;;2.15;0.88;;;19.10;99.90;;;;;;5021383;28;20052;-77
2023/07/11 06:50:49;;;;;;;0.52;0.52;;;19.30;99.90;;;;;;5002720;28;20525;-78
2023/07/11 06:53:16;;;;;;;1.35;0.70;;;19.40;99.90;;;;;;5006798;28;20527;-78
2023/07/11 06:55:50;;;;;;;1.08;0.60;;;19.50;99.90;;;;;;5000136;28;20072;-78
2023/07/11 06:58:17;;;;;;;2.72;0.60;;;19.70;99.90;;;;;;5024645;28;20605;-78
2023/07/11 07:00:45;;;;;;;0.70;0.60;;;19.70;99.90;;;;;;5026437;28;20044;-77
2023/07/11 07:03:12;;;;;;;0.70;0.60;;;19.80;99.90;;;;;;5021961;28;20049;-77
2023/07/11 07:05:56;;;;;;;1.40;0.50;;;19.80;99.90;;;;;;5023003;28;20056;-78
2023/07/11 07:08:24;;;;;;;1.10;0.57;;;19.70;99.90;;;;;;4999903;28;20053;-77
2023/07/11 07:10:51;;;;;;;1.00;0.57;;;19.70;99.90;;;;;;5023872;28;20045;-77
2023/07/11 07:13:19;;;;;;;0.40;0.40;;;19.80;99.90;;;;;;5020459;28;20044;-78
2023/07/11 07:15:47;;;;;;;1.27;0.70;;;19.80;99.90;;;;;;5040096;28;20142;-79
2023/07/11 07:18:15;;;;;;;1.67;0.70;;;19.70;99.90;;;;;;5024373;28;20107;-78
2023/07/11 07:20:46;;;;;;;1.67;0.63;;;19.70;99.90;;;;;;5026778;28;20098;-76
2023/07/11 07:23:34;;;;;;;0.98;0.57;;;19.60;99.90;;;;;;5023290;28;20051;-78
2023/07/11 07:26:02;;;;;;;1.23;0.63;;;19.60;99.90;;;;;;5044920;28;20998;-77
2023/07/11 07:28:30;;;;;;;0.70;0.70;;;19.50;99.90;;;;;;5025779;28;20088;-77
2023/07/11 07:30:57;;;;;;;0.65;0.50;;;19.60;99.90;;;;;;5027010;28;20447;-77
2023/07/11 07:33:25;;;;;;;0.60;0.60;;;19.70;99.90;;;;;;5026610;28;20056;-77
2023/07/11 07:35:56;;;;;;;1.92;0.70;;;19.70;99.90;;;;;;5010741;28;20053;-78
2023/07/11 07:38:23;;;;;;;1.15;0.60;;;19.70;99.90;;;;;;5010413;28;20570;-77
2023/07/11 07:40:53;;;;;;;2.15;0.93;;;19.70;99.90;;;;;;5025903;28;20048;-77
2023/07/11 07:43:20;;;;;;;1.75;0.90;;;19.60;99.90;;;;;;5023010;28;20491;-77
2023/07/11 07:45:50;;;;;;;1.40;0.70;;;19.80;99.90;;;;;;5041686;28;20087;-77
2023/07/11 07:48:17;;;;;;;1.58;0.73;;;19.90;99.90;;;;;;5022249;28;20052;-76
2023/07/11 07:50:44;;;;;;;1.63;0.70;;;20.00;99.90;;;;;;5007650;28;20118;-77
2023/07/11 07:53:12;;;;;;;1.77;1.02;;;20.00;99.90;;;;;;5009981;28;20045;-77
2023/07/11 07:55:39;;;;;;;1.33;0.77;;;20.00;99.90;;;;;;5026345;28;20060;-77
2023/07/11 07:58:06;;;;;;;0.80;0.60;;;20.10;99.90;;;;;;5005633;28;20076;-77
2023/07/11 08:00:33;;;;;;;1.42;0.70;;;20.30;99.90;;;;;;5024178;28;20045;-76
2023/07/11 08:03:00;;;;;;;1.45;0.70;;;20.50;99.90;;;;;;5039695;28;20044;-77
2023/07/11 08:05:27;;;;;;;1.52;1.02;;;20.70;99.90;;;;;;5042128;28;20136;-77
2023/07/11 08:07:54;;;;;;;1.65;0.80;;;20.70;99.90;;;;;;5040955;28;20057;-78
2023/07/11 08:10:21;;;;;;;1.35;0.70;;;20.80;99.90;;;;;;5042188;28;20524;-77
2023/07/11 08:12:47;;;;;;;1.33;0.80;;;20.90;99.90;;;;;;5042078;28;20051;-78
2023/07/11 08:15:14;;;;;;;1.17;0.75;;;20.80;99.90;;;;;;5042777;28;20052;-79
2023/07/11 08:17:45;;;;;;;2.10;0.70;;;20.80;99.90;;;;;;5005059;28;20144;-76
2023/07/11 08:20:12;;;;;;;1.10;0.77;;;21.00;99.90;;;;;;5025765;28;20098;-77
2023/07/11 08:22:39;;;;;;;1.35;0.75;;;21.20;99.90;;;;;;5043491;28;20132;-78
2023/07/11 08:25:06;;;;;;;1.08;0.70;;;21.40;99.90;;;;;;5025993;28;20060;-77
2023/07/11 08:27:33;;;;;;;1.17;0.68;;;21.50;99.90;;;;;;5041954;28;20049;-78
2023/07/11 08:30:00;;;;;;;2.00;0.93;;;21.50;99.90;;;;;;5040535;28;20048;-77
2023/07/11 08:32:27;;;;;;;1.77;0.88;;;21.40;99.90;;;;;;5041422;28;20107;-78
2023/07/11 08:34:54;;;;;;;2.45;1.10;;;21.20;99.90;;;;;;5043515;28;20053;-78
2023/07/11 08:37:20;;;;;;;2.28;0.90;;;21.10;99.90;;;;;;5043570;28;20053;-77
2023/07/11 08:39:48;;;;;;;1.77;1.00;;;21.00;99.90;;;;;;5041747;28;20052;-77
2023/07/11 08:42:41;;;;;;;2.03;1.08;;;21.00;99.90;;;;;;5022021;28;20217;-77
2023/07/11 08:45:18;;;;;;;1.05;0.88;;;21.00;99.90;;;;;;5024202;28;20572;-77
2023/07/11 08:47:53;;;;;;;2.40;1.00;;;21.20;99.90;;;;;;5024311;28;20076;-78
2023/07/11 08:50:35;;;;;;;2.72;1.05;;;21.30;99.90;;;;;;5021882;28;20057;-78
2023/07/11 08:53:26;;;;;;;2.40;1.58;;;21.30;99.90;;;;;;5023390;28;20076;-77
2023/07/11 08:55:53;;;;;;;3.35;1.20;;;21.40;99.90;;;;;;5010140;28;20142;-77
2023/07/11 08:58:27;;;;;;;1.45;1.00;;;21.40;99.90;;;;;;5024894;28;20103;-77
2023/07/11 09:00:54;;;;;;;1.88;1.40;;;21.50;99.90;;;;;;5029279;28;20048;-78
2023/07/11 09:03:32;;;;;;;2.13;0.77;;;21.60;99.90;;;;;;5029035;28;20122;-78
2023/07/11 09:06:06;;;;;;;2.47;1.25;;;21.60;99.90;;;;;;5029515;28;20053;-78
2023/07/11 09:08:35;;;;;;;1.45;1.13;;;21.50;99.90;;;;;;5027265;28;20051;-78
2023/07/11 09:11:31;;;;;;;2.13;1.00;;;21.50;99.90;;;;;;5035297;28;20067;-78
2023/07/11 09:14:17;;;;;;;1.60;0.77;;;21.40;99.90;;;;;;5026946;28;20496;-76
2023/07/11 09:16:52;;;;;;;1.40;0.95;;;21.40;99.90;;;;;;5042050;28;20496;-76
2023/07/11 09:19:42;;;;;;;1.30;0.73;;;21.60;99.90;;;;;;5026243;28;20447;-77
2023/07/11 09:22:48;;;;;;;0.90;0.60;;;21.70;99.90;;;;;;5042711;28;20093;-77
2023/07/11 09:25:24;;;;;;;1.92;0.95;;;21.90;99.90;;;;;;5042695;28;20053;-76
2023/07/11 09:27:59;;;;;;;1.38;0.90;;;22.00;99.90;;;;;;5004493;28;20133;-77
2023/07/11 09:30:48;;;;;;;1.60;0.85;;;22.00;99.90;;;;;;5009315;28;20110;-77
2023/07/11 09:33:16;;;;;;;1.60;0.85;;;22.00;99.90;;;;;;5020412;28;20071;-78
2023/07/11 09:35:43;;;;;;;2.28;0.73;;;22.10;99.90;;;;;;5042538;28;20047;-77
2023/07/11 09:38:18;;;;;;;1.27;0.90;;;22.20;99.90;;;;;;5035573;28;20162;-78
2023/07/11 09:41:05;;;;;;;1.70;0.80;;;22.30;99.90;;;;;;5023173;28;20049;-77
2023/07/11 09:43:32;;;;;;;2.13;1.00;;;22.50;99.90;;;;;;5029212;28;20053;-78
2023/07/11 09:45:59;;;;;;;3.20;1.42;;;22.60;99.90;;;;;;5030271;28;20054;-78
2023/07/11 09:48:34;;;;;;;1.77;0.90;;;22.50;99.90;;;;;;5041844;28;20049;-78
2023/07/11 09:51:03;;;;;;;1.70;1.20;;;22.50;99.90;;;;;;5020312;28;20060;-77
2023/07/11 09:53:33;;;;;;;1.40;0.82;;;22.60;99.90;;;;;;5029974;28;20068;-77
2023/07/11 09:56:01;;;;;;;1.52;0.88;;;22.60;99.90;;;;;;5031036;28;21049;-77
2023/07/11 09:58:38;;;;;;;1.35;0.88;;;22.50;99.90;;;;;;5000049;28;21847;-78
2023/07/11 10:01:06;;;;;;;1.88;0.90;;;22.50;99.90;;;;;;5013023;28;20496;-77
2023/07/11 10:03:35;;;;;;;3.03;1.15;;;22.40;99.90;;;;;;5026690;28;20048;-79
2023/07/11 10:06:03;;;;;;;1.80;0.93;;;22.30;99.90;;;;;;5019234;28;20582;-77
2023/07/11 10:08:34;;;;;;;1.67;0.90;;;22.50;99.90;;;;;;5013822;28;20063;-77
2023/07/11 10:11:06;;;;;;;2.20;1.27;;;22.50;99.90;;;;;;5021430;28;20052;-77
2023/07/11 10:13:32;;;;;;;1.33;0.77;;;22.50;99.90;;;;;;5023170;28;20045;-77
2023/07/11 10:16:04;;;;;;;1.60;0.82;;;22.60;99.90;;;;;;5022699;28;20049;-77
2023/07/11 10:18:34;;;;;;;1.85;1.20;;;22.60;99.90;;;;;;5023100;28;20057;-78
2023/07/11 10:21:24;;;;;;;1.40;0.90;;;22.70;99.90;;;;;;5034244;28;20520;-77
2023/07/11 10:24:14;;;;;;;1.17;0.70;;;22.70;99.90;;;;;;5009809;28;20041;-77
2023/07/11 10:26:40;;;;;;;1.25;0.77;;;23.00;99.90;;;;;;5020107;28;20114;-77
2023/07/11 10:29:16;;;;;;;1.42;0.90;;;23.40;99.90;;;;;;5011920;28;20152;-77
2023/07/11 10:32:13;;;;;;;2.15;0.88;;;23.70;99.90;;;;;;5031694;28;20472;-78
2023/07/11 10:34:44;;;;;;;1.77;0.82;;;24.10;99.90;;;;;;5025563;28;20153;-77
2023/07/11 10:37:14;;;;;;;1.60;0.80;;;24.20;99.90;;;;;;5009779;28;20045;-77
2023/07/11 10:39:47;;;;;;;0.75;0.68;;;24.40;99.20;;;;;;5044450;28;20045;-77
2023/07/11 10:42:40;;;;;;;1.55;0.80;;;24.60;99.10;;;;;;5012519;28;20060;-77
2023/07/11 10:45:17;;;;;;;2.13;0.90;;;24.70;98.40;;;;;;5010623;28;20064;-77
2023/07/11 10:48:22;;;;;;;1.75;1.00;;;25.00;98.30;;;;;;5034337;28;20296;-78
2023/07/11 10:50:55;;;;;;;1.90;0.88;;;25.00;98.00;;;;;;5018528;28;20467;-78
2023/07/11 10:53:45;;;;;;;2.05;0.90;;;25.00;97.80;;;;;;5018633;28;20041;-77
2023/07/11 10:56:30;;;;;;;1.27;0.73;;;25.00;98.20;;;;;;5012248;28;20108;-78
2023/07/11 10:58:57;;;;;;;1.58;0.80;;;25.20;98.30;;;;;;5026956;28;20049;-78
2023/07/11 11:01:46;;;;;;;1.38;0.82;;;25.20;97.80;;;;;;5027648;28;20049;-77
2023/07/11 11:04:35;;;;;;;1.05;0.82;;;25.20;97.70;;;;;;5029818;28;20132;-77
2023/07/11 11:07:14;;;;;;;1.02;0.80;;;25.10;97.80;;;;;;5025541;28;20040;-77
2023/07/11 11:09:49;;;;;;;1.20;0.70;;;25.00;97.80;;;;;;5026148;28;20091;-77
2023/07/11 11:12:16;;;;;;;1.48;0.80;;;25.00;97.60;;;;;;5026636;28;20052;-77
2023/07/11 11:14:46;;;;;;;1.70;0.98;;;24.90;97.20;;;;;;5044543;28;20051;-77
2023/07/11 11:17:38;;;;;;;2.00;1.00;;;25.20;97.30;;;;;;5042717;28;20060;-77
2023/07/11 11:20:14;;;;;;;1.77;0.80;;;25.50;96.70;;;;;;5018406;28;20107;-78
2023/07/11 11:23:03;;;;;;;2.10;1.00;;;25.80;96.60;;;;;;5051261;28;20048;-77
2023/07/11 11:25:45;;;;;;;2.38;1.02;;;26.00;95.50;;;;;;5045175;28;20112;-77
2023/07/11 11:28:26;;;;;;;2.75;1.10;;;25.90;95.20;;;;;;5022860;28;20119;-78
2023/07/11 11:31:26;;;;;;;2.15;1.02;;;25.80;95.20;;;;;;5009443;28;20090;-78
2023/07/11 11:34:14;;;;;;;1.92;1.02;;;26.10;95.40;;;;;;4997062;28;20041;-77
2023/07/11 11:36:50;;;;;;;1.73;0.80;;;26.10;95.30;;;;;;5045563;28;20478;-77
2023/07/11 11:39:49;;;;;;;1.27;0.77;;;26.50;95.50;;;;;;5041146;28;20455;-77
2023/07/11 11:42:25;;;;;;;1.42;0.95;;;26.90;95.50;;;;;;5027628;28;20057;-78
2023/07/11 11:45:03;;;;;;;2.45;1.05;;;27.10;95.40;;;;;;5015527;28;20098;-77
2023/07/11 11:47:36;;;;;;;1.65;1.17;;;27.10;95.10;;;;;;5015282;28;20487;-78
2023/07/11 11:50:06;;;;;;;1.33;0.88;;;27.00;94.90;;;;;;5019164;28;20107;-78
2023/07/11 11:52:36;;;;;;;1.05;0.57;;;27.00;94.80;;;;;;5020672;28;20142;-77
2023/07/11 11:55:38;;;;;;;1.63;0.85;;;27.20;94.60;;;;;;5027654;28;20439;-79
2023/07/11 11:58:05;;;;;;;1.20;0.68;;;27.10;94.20;;;;;;4985445;28;20074;-77
2023/07/11 12:00:40;;;;;;;1.55;0.93;;;27.20;93.70;;;;;;5016508;28;20504;-77
2023/07/11 12:03:33;;;;;;;1.83;0.80;;;27.30;94.40;;;;;;4998620;28;20064;-77
2023/07/11 12:06:03;;;;;;;2.17;0.88;;;27.60;94.20;;;;;;5024618;28;20041;-78
2023/07/11 12:08:35;;;;;;;1.60;0.90;;;27.80;93.60;;;;;;5024022;28;20118;-77
2023/07/11 12:11:08;;;;;;;1.88;0.93;;;27.60;94.10;;;;;;5019165;28;20072;-77
2023/07/11 12:13:39;;;;;;;1.00;0.60;;;27.60;94.10;;;;;;5042985;28;20068;-78
2023/07/11 12:16:25;;;;;;;1.13;0.70;;;27.70;93.70;;;;;;5024445;28;20075;-77
2023/07/11 12:19:31;;;;;;;1.60;0.90;;;28.00;94.10;;;;;;5028645;28;20045;-78
2023/07/11 12:22:01;;;;;;;1.20;0.80;;;28.90;92.90;;;;;;5017267;28;20083;-77
2023/07/11 12:24:34;;;;;;;1.52;0.80;;;28.30;92.80;;;;;;5038191;28;20053;-77
2023/07/11 12:27:16;;;;;;;2.50;1.20;;;28.10;92.80;;;;;;5038753;28;20064;-77
2023/07/11 12:29:53;;;;;;;1.42;1.00;;;28.00;92.30;;;;;;5029837;28;20494;-77
2023/07/11 12:32:32;;;;;;;1.55;1.20;;;28.30;92.40;;;;;;5007380;28;20041;-78
2023/07/11 12:35:05;;;;;;;2.17;1.27;;;28.40;92.20;;;;;;5023418;28;20049;-77
2023/07/11 12:37:41;;;;;;;3.00;1.45;;;28.30;92.40;;;;;;5033269;28;20148;-77
2023/07/11 12:40:11;;;;;;;1.63;1.00;;;27.70;92.50;;;;;;5025773;28;20049;-77
2023/07/11 12:42:54;;;;;;;2.45;1.08;;;28.00;92.90;;;;;;5042020;28;20591;-78
2023/07/11 12:45:22;;;;;;;1.80;0.90;;;28.10;92.20;;;;;;5002259;28;20114;-77
2023/07/11 12:48:12;;;;;;;1.83;1.05;;;27.80;92.00;;;;;;5034738;28;20106;-77
2023/07/11 12:50:47;;;;;;;2.00;0.80;;;28.70;91.50;;;;;;5008535;28;20128;-77
2023/07/11 12:53:14;;;;;;;1.60;0.95;;;29.00;91.00;;;;;;5025414;28;20060;-77
2023/07/11 12:55:45;;;;;;;1.92;1.13;;;28.70;91.60;;;;;;5025294;28;20089;-77
2023/07/11 12:58:17;;;;;;;1.80;0.90;;;28.70;91.00;;;;;;5020716;28;20053;-77
2023/07/11 13:00:43;;;;;;;1.95;0.98;;;28.90;92.00;;;;;;5025588;28;20102;-77
2023/07/11 13:03:24;;;;;;;2.05;1.00;;;29.30;91.50;;;;;;5024952;28;20205;-77
2023/07/11 13:05:56;;;;;;;1.27;0.80;;;29.60;90.80;;;;;;5007380;28;20049;-76
2023/07/11 13:08:41;;;;;;;2.28;1.00;;;29.30;91.10;;;;;;5008885;28;20599;-77
2023/07/11 13:11:17;;;;;;;1.92;0.80;;;29.30;90.50;;;;;;5005787;28;20126;-77